sensor_id;sensor_type;location;lat;lon;timestamp;temperature;humidity
27004;DHT22;14546;47.590;19.022;2023-05-10T00:00:00;12.80;63.60
27004;DHT22;14546;47.590;19.022;2023-05-10T00:02:26;12.70;63.40
27004;DHT22;14546;47.590;19.022;2023-05-10T00:04:55;12.70;63.50
27004;DHT22;14546;47.590;19.022;2023-05-10T00:07:21;12.60;63.60
27004;DHT22;14546;47.590;19.022;2023-05-10T00:09:47;12.50;63.70
27004;DHT22;14546;47.590;19.022;2023-05-10T00:12:13;12.50;63.90
27004;DHT22;14546;47.590;19.022;2023-05-10T00:14:39;12.40;64.10
27004;DHT22;14546;47.590;19.022;2023-05-10T00:17:05;12.30;64.10
27004;DHT22;14546;47.590;19.022;2023-05-10T00:19:31;12.30;64.40
27004;DHT22;14546;47.590;19.022;2023-05-10T00:21:57;12.20;64.50
27004;DHT22;14546;47.590;19.022;2023-05-10T00:24:24;12.00;64.60
27004;DHT22;14546;47.590;19.022;2023-05-10T00:26:50;11.90;64.90
27004;DHT22;14546;47.590;19.022;2023-05-10T00:29:16;11.80;65.30
27004;DHT22;14546;47.590;19.022;2023-05-10T00:31:42;11.70;65.70
27004;DHT22;14546;47.590;19.022;2023-05-10T00:34:08;11.70;66.00
27004;DHT22;14546;47.590;19.022;2023-05-10T00:36:34;11.60;66.30
27004;DHT22;14546;47.590;19.022;2023-05-10T00:39:00;11.60;66.40
27004;DHT22;14546;47.590;19.022;2023-05-10T00:41:26;11.50;66.50
27004;DHT22;14546;47.590;19.022;2023-05-10T00:43:52;11.50;67.60
27004;DHT22;14546;47.590;19.022;2023-05-10T00:46:18;11.50;67.10
27004;DHT22;14546;47.590;19.022;2023-05-10T00:48:45;11.40;67.10
27004;DHT22;14546;47.590;19.022;2023-05-10T00:51:11;11.40;67.40
27004;DHT22;14546;47.590;19.022;2023-05-10T00:53:37;11.30;67.50
27004;DHT22;14546;47.590;19.022;2023-05-10T00:56:03;11.30;68.60
27004;DHT22;14546;47.590;19.022;2023-05-10T00:58:29;11.30;68.00
27004;DHT22;14546;47.590;19.022;2023-05-10T01:00:56;11.20;68.20
27004;DHT22;14546;47.590;19.022;2023-05-10T01:03:23;11.10;68.50
27004;DHT22;14546;47.590;19.022;2023-05-10T01:05:49;11.10;68.80
27004;DHT22;14546;47.590;19.022;2023-05-10T01:08:15;11.00;69.00
27004;DHT22;14546;47.590;19.022;2023-05-10T01:10:42;11.00;69.40
27004;DHT22;14546;47.590;19.022;2023-05-10T01:13:08;11.00;69.70
27004;DHT22;14546;47.590;19.022;2023-05-10T01:15:35;11.00;69.90
27004;DHT22;14546;47.590;19.022;2023-05-10T01:18:02;10.90;70.20
27004;DHT22;14546;47.590;19.022;2023-05-10T01:20:35;10.90;70.60
27004;DHT22;14546;47.590;19.022;2023-05-10T01:34:15;11.00;72.40
27004;DHT22;14546;47.590;19.022;2023-05-10T01:36:57;11.00;72.00
27004;DHT22;14546;47.590;19.022;2023-05-10T01:40:04;11.00;72.30
27004;DHT22;14546;47.590;19.022;2023-05-10T01:42:46;11.00;72.70
27004;DHT22;14546;47.590;19.022;2023-05-10T01:47:58;11.00;72.60
27004;DHT22;14546;47.590;19.022;2023-05-10T01:50:30;11.00;72.90
27004;DHT22;14546;47.590;19.022;2023-05-10T01:52:58;11.00;73.10
27004;DHT22;14546;47.590;19.022;2023-05-10T01:55:27;11.10;73.50
27004;DHT22;14546;47.590;19.022;2023-05-10T01:58:05;11.10;73.80
27004;DHT22;14546;47.590;19.022;2023-05-10T02:00:33;11.20;74.00
27004;DHT22;14546;47.590;19.022;2023-05-10T02:03:03;11.20;74.10
27004;DHT22;14546;47.590;19.022;2023-05-10T02:05:32;11.30;74.30
27004;DHT22;14546;47.590;19.022;2023-05-10T02:08:00;11.30;74.40
27004;DHT22;14546;47.590;19.022;2023-05-10T02:10:28;11.30;74.60
27004;DHT22;14546;47.590;19.022;2023-05-10T02:12:55;11.40;74.60
27004;DHT22;14546;47.590;19.022;2023-05-10T02:15:24;11.40;74.60
27004;DHT22;14546;47.590;19.022;2023-05-10T02:17:52;11.40;74.60
27004;DHT22;14546;47.590;19.022;2023-05-10T02:20:20;11.40;74.60
27004;DHT22;14546;47.590;19.022;2023-05-10T02:22:50;11.50;74.70
27004;DHT22;14546;47.590;19.022;2023-05-10T02:25:18;11.50;74.70
27004;DHT22;14546;47.590;19.022;2023-05-10T02:27:46;11.60;74.80
27004;DHT22;14546;47.590;19.022;2023-05-10T02:30:14;11.60;74.90
27004;DHT22;14546;47.590;19.022;2023-05-10T02:32:41;11.60;74.80
27004;DHT22;14546;47.590;19.022;2023-05-10T02:35:08;11.60;75.70
27004;DHT22;14546;47.590;19.022;2023-05-10T02:37:37;11.70;75.00
27004;DHT22;14546;47.590;19.022;2023-05-10T02:40:06;11.70;75.10
27004;DHT22;14546;47.590;19.022;2023-05-10T02:42:35;11.70;75.30
27004;DHT22;14546;47.590;19.022;2023-05-10T02:45:07;11.70;75.30
27004;DHT22;14546;47.590;19.022;2023-05-10T02:47:36;11.80;75.30
27004;DHT22;14546;47.590;19.022;2023-05-10T02:50:03;11.80;75.10
27004;DHT22;14546;47.590;19.022;2023-05-10T02:52:34;11.80;74.90
27004;DHT22;14546;47.590;19.022;2023-05-10T02:55:03;11.90;74.90
27004;DHT22;14546;47.590;19.022;2023-05-10T02:57:34;12.00;74.70
27004;DHT22;14546;47.590;19.022;2023-05-10T03:00:03;12.00;74.60
27004;DHT22;14546;47.590;19.022;2023-05-10T03:02:29;12.10;74.60
27004;DHT22;14546;47.590;19.022;2023-05-10T03:04:56;12.10;74.50
27004;DHT22;14546;47.590;19.022;2023-05-10T03:07:22;12.10;74.40
27004;DHT22;14546;47.590;19.022;2023-05-10T03:09:49;12.20;74.40
27004;DHT22;14546;47.590;19.022;2023-05-10T03:12:56;12.20;74.40
27004;DHT22;14546;47.590;19.022;2023-05-10T03:15:47;12.20;74.50
27004;DHT22;14546;47.590;19.022;2023-05-10T03:18:23;12.20;74.30
27004;DHT22;14546;47.590;19.022;2023-05-10T03:20:59;12.10;74.00
27004;DHT22;14546;47.590;19.022;2023-05-10T03:25:52;12.10;74.00
27004;DHT22;14546;47.590;19.022;2023-05-10T03:28:18;12.10;74.00
27004;DHT22;14546;47.590;19.022;2023-05-10T03:30:46;12.10;73.90
27004;DHT22;14546;47.590;19.022;2023-05-10T03:33:12;12.10;73.90
27004;DHT22;14546;47.590;19.022;2023-05-10T03:35:39;12.10;73.90
27004;DHT22;14546;47.590;19.022;2023-05-10T03:38:05;12.10;73.90
27004;DHT22;14546;47.590;19.022;2023-05-10T03:40:31;12.00;73.70
27004;DHT22;14546;47.590;19.022;2023-05-10T03:43:00;12.00;73.60
27004;DHT22;14546;47.590;19.022;2023-05-10T03:45:29;12.00;73.60
27004;DHT22;14546;47.590;19.022;2023-05-10T03:47:57;11.90;73.40
27004;DHT22;14546;47.590;19.022;2023-05-10T03:50:23;11.90;73.50
27004;DHT22;14546;47.590;19.022;2023-05-10T03:52:49;11.90;73.90
27004;DHT22;14546;47.590;19.022;2023-05-10T03:55:15;11.90;74.10
27004;DHT22;14546;47.590;19.022;2023-05-10T03:57:41;11.90;74.40
27004;DHT22;14546;47.590;19.022;2023-05-10T04:00:08;11.90;74.50
27004;DHT22;14546;47.590;19.022;2023-05-10T04:02:36;11.80;74.80
27004;DHT22;14546;47.590;19.022;2023-05-10T04:05:04;11.80;74.80
27004;DHT22;14546;47.590;19.022;2023-05-10T04:07:30;11.70;74.60
27004;DHT22;14546;47.590;19.022;2023-05-10T04:09:56;11.70;74.60
27004;DHT22;14546;47.590;19.022;2023-05-10T04:12:22;11.70;74.50
27004;DHT22;14546;47.590;19.022;2023-05-10T04:14:48;11.70;74.50
27004;DHT22;14546;47.590;19.022;2023-05-10T04:17:13;11.70;74.60
27004;DHT22;14546;47.590;19.022;2023-05-10T04:19:39;11.70;74.70
27004;DHT22;14546;47.590;19.022;2023-05-10T04:22:05;11.70;74.70
27004;DHT22;14546;47.590;19.022;2023-05-10T04:24:31;11.60;74.60
27004;DHT22;14546;47.590;19.022;2023-05-10T04:26:57;11.70;74.70
27004;DHT22;14546;47.590;19.022;2023-05-10T04:29:26;11.70;74.70
27004;DHT22;14546;47.590;19.022;2023-05-10T04:31:52;11.70;74.80
27004;DHT22;14546;47.590;19.022;2023-05-10T04:34:20;11.70;74.80
27004;DHT22;14546;47.590;19.022;2023-05-10T04:36:46;11.60;74.80
27004;DHT22;14546;47.590;19.022;2023-05-10T04:39:15;11.60;75.00
27004;DHT22;14546;47.590;19.022;2023-05-10T04:41:41;11.60;75.20
27004;DHT22;14546;47.590;19.022;2023-05-10T04:44:07;11.50;75.20
27004;DHT22;14546;47.590;19.022;2023-05-10T04:46:33;11.50;75.40
27004;DHT22;14546;47.590;19.022;2023-05-10T04:48:59;11.40;75.60
27004;DHT22;14546;47.590;19.022;2023-05-10T04:51:25;11.40;75.80
27004;DHT22;14546;47.590;19.022;2023-05-10T04:53:51;11.40;76.00
27004;DHT22;14546;47.590;19.022;2023-05-10T04:56:17;11.50;76.30
27004;DHT22;14546;47.590;19.022;2023-05-10T04:58:43;11.50;76.50
27004;DHT22;14546;47.590;19.022;2023-05-10T05:01:09;11.60;76.60
27004;DHT22;14546;47.590;19.022;2023-05-10T05:03:36;11.60;76.50
27004;DHT22;14546;47.590;19.022;2023-05-10T05:06:02;11.70;76.40
27004;DHT22;14546;47.590;19.022;2023-05-10T05:08:29;11.80;76.40
27004;DHT22;14546;47.590;19.022;2023-05-10T05:10:57;11.90;76.20
27004;DHT22;14546;47.590;19.022;2023-05-10T05:13:24;11.90;76.10
27004;DHT22;14546;47.590;19.022;2023-05-10T05:15:50;12.00;75.90
27004;DHT22;14546;47.590;19.022;2023-05-10T05:18:16;12.00;75.60
27004;DHT22;14546;47.590;19.022;2023-05-10T05:20:42;12.10;75.60
27004;DHT22;14546;47.590;19.022;2023-05-10T05:23:08;12.20;75.60
27004;DHT22;14546;47.590;19.022;2023-05-10T05:25:34;12.20;75.60
27004;DHT22;14546;47.590;19.022;2023-05-10T05:28:01;12.30;75.70
27004;DHT22;14546;47.590;19.022;2023-05-10T05:30:27;12.30;75.70
27004;DHT22;14546;47.590;19.022;2023-05-10T05:32:53;12.30;75.60
27004;DHT22;14546;47.590;19.022;2023-05-10T05:35:19;12.40;75.80
27004;DHT22;14546;47.590;19.022;2023-05-10T05:37:45;12.50;75.70
27004;DHT22;14546;47.590;19.022;2023-05-10T05:40:15;12.50;75.40
27004;DHT22;14546;47.590;19.022;2023-05-10T05:42:42;12.50;75.40
27004;DHT22;14546;47.590;19.022;2023-05-10T05:45:29;12.50;75.40
27004;DHT22;14546;47.590;19.022;2023-05-10T05:47:55;12.50;75.40
27004;DHT22;14546;47.590;19.022;2023-05-10T05:50:21;12.50;75.50
27004;DHT22;14546;47.590;19.022;2023-05-10T05:52:47;12.50;75.60
27004;DHT22;14546;47.590;19.022;2023-05-10T05:55:13;12.60;75.80
27004;DHT22;14546;47.590;19.022;2023-05-10T05:57:39;12.60;75.80
27004;DHT22;14546;47.590;19.022;2023-05-10T06:00:06;12.60;75.70
27004;DHT22;14546;47.590;19.022;2023-05-10T06:02:32;12.70;75.70
27004;DHT22;14546;47.590;19.022;2023-05-10T06:04:58;12.70;75.70
27004;DHT22;14546;47.590;19.022;2023-05-10T06:07:24;12.70;75.70
27004;DHT22;14546;47.590;19.022;2023-05-10T06:09:51;12.80;75.70
27004;DHT22;14546;47.590;19.022;2023-05-10T06:12:17;12.80;75.50
27004;DHT22;14546;47.590;19.022;2023-05-10T06:14:43;12.90;75.00
27004;DHT22;14546;47.590;19.022;2023-05-10T06:17:09;12.90;74.60
27004;DHT22;14546;47.590;19.022;2023-05-10T06:19:36;13.00;74.40
27004;DHT22;14546;47.590;19.022;2023-05-10T06:22:02;13.00;74.10
27004;DHT22;14546;47.590;19.022;2023-05-10T06:24:28;13.10;73.80
27004;DHT22;14546;47.590;19.022;2023-05-10T06:26:55;13.10;73.60
27004;DHT22;14546;47.590;19.022;2023-05-10T06:29:21;13.20;73.50
27004;DHT22;14546;47.590;19.022;2023-05-10T06:31:47;13.20;73.20
27004;DHT22;14546;47.590;19.022;2023-05-10T06:34:13;13.30;73.10
27004;DHT22;14546;47.590;19.022;2023-05-10T06:36:39;13.30;72.90
27004;DHT22;14546;47.590;19.022;2023-05-10T06:39:05;13.40;72.90
27004;DHT22;14546;47.590;19.022;2023-05-10T06:41:32;13.40;72.80
27004;DHT22;14546;47.590;19.022;2023-05-10T06:43:58;13.60;72.70
27004;DHT22;14546;47.590;19.022;2023-05-10T06:46:24;13.60;72.40
27004;DHT22;14546;47.590;19.022;2023-05-10T06:48:50;13.70;72.40
27004;DHT22;14546;47.590;19.022;2023-05-10T06:51:16;13.80;72.20
27004;DHT22;14546;47.590;19.022;2023-05-10T06:53:46;13.80;71.90
27004;DHT22;14546;47.590;19.022;2023-05-10T06:56:11;13.80;71.50
27004;DHT22;14546;47.590;19.022;2023-05-10T06:58:37;13.90;71.60
27004;DHT22;14546;47.590;19.022;2023-05-10T07:01:06;13.90;71.70
27004;DHT22;14546;47.590;19.022;2023-05-10T07:03:33;14.10;71.40
27004;DHT22;14546;47.590;19.022;2023-05-10T07:06:02;14.10;71.10
27004;DHT22;14546;47.590;19.022;2023-05-10T07:08:35;14.10;70.90
27004;DHT22;14546;47.590;19.022;2023-05-10T07:13:27;14.20;70.90
27004;DHT22;14546;47.590;19.022;2023-05-10T07:15:53;14.30;70.80
27004;DHT22;14546;47.590;19.022;2023-05-10T07:18:19;14.40;70.50
27004;DHT22;14546;47.590;19.022;2023-05-10T07:20:46;14.50;70.60
27004;DHT22;14546;47.590;19.022;2023-05-10T07:23:15;14.60;70.50
27004;DHT22;14546;47.590;19.022;2023-05-10T07:25:49;14.80;70.60
27004;DHT22;14546;47.590;19.022;2023-05-10T07:28:15;14.90;70.50
27004;DHT22;14546;47.590;19.022;2023-05-10T07:30:42;15.10;70.00
27004;DHT22;14546;47.590;19.022;2023-05-10T07:33:10;15.30;69.80
27004;DHT22;14546;47.590;19.022;2023-05-10T07:35:36;15.40;69.50
27004;DHT22;14546;47.590;19.022;2023-05-10T07:38:03;15.60;69.30
27004;DHT22;14546;47.590;19.022;2023-05-10T07:40:32;15.80;69.00
27004;DHT22;14546;47.590;19.022;2023-05-10T07:42:58;16.00;68.40
27004;DHT22;14546;47.590;19.022;2023-05-10T07:45:25;16.10;67.70
27004;DHT22;14546;47.590;19.022;2023-05-10T07:47:51;16.20;67.10
27004;DHT22;14546;47.590;19.022;2023-05-10T07:50:17;16.30;66.70
27004;DHT22;14546;47.590;19.022;2023-05-10T07:52:44;16.30;66.30
27004;DHT22;14546;47.590;19.022;2023-05-10T07:55:10;16.40;65.90
27004;DHT22;14546;47.590;19.022;2023-05-10T07:57:37;16.40;65.40
27004;DHT22;14546;47.590;19.022;2023-05-10T08:00:04;16.40;65.20
27004;DHT22;14546;47.590;19.022;2023-05-10T08:02:30;16.40;64.70
27004;DHT22;14546;47.590;19.022;2023-05-10T08:04:56;16.50;64.90
27004;DHT22;14546;47.590;19.022;2023-05-10T08:07:24;16.70;65.10
27004;DHT22;14546;47.590;19.022;2023-05-10T08:09:50;16.80;64.80
27004;DHT22;14546;47.590;19.022;2023-05-10T08:12:16;16.90;64.00
27004;DHT22;14546;47.590;19.022;2023-05-10T08:14:42;17.00;63.30
27004;DHT22;14546;47.590;19.022;2023-05-10T08:17:09;17.00;63.40
27004;DHT22;14546;47.590;19.022;2023-05-10T08:19:35;17.10;63.40
27004;DHT22;14546;47.590;19.022;2023-05-10T08:22:01;17.20;63.20
27004;DHT22;14546;47.590;19.022;2023-05-10T08:24:28;17.30;63.50
27004;DHT22;14546;47.590;19.022;2023-05-10T08:26:54;17.50;62.90
27004;DHT22;14546;47.590;19.022;2023-05-10T08:29:20;17.60;62.60
27004;DHT22;14546;47.590;19.022;2023-05-10T08:31:49;17.60;61.90
27004;DHT22;14546;47.590;19.022;2023-05-10T08:34:15;17.60;61.60
27004;DHT22;14546;47.590;19.022;2023-05-10T08:36:41;17.50;61.20
27004;DHT22;14546;47.590;19.022;2023-05-10T08:39:10;17.40;61.00
27004;DHT22;14546;47.590;19.022;2023-05-10T08:41:39;17.40;61.60
27004;DHT22;14546;47.590;19.022;2023-05-10T08:44:10;17.40;61.30
27004;DHT22;14546;47.590;19.022;2023-05-10T08:46:37;17.30;60.70
27004;DHT22;14546;47.590;19.022;2023-05-10T08:49:09;17.20;60.80
27004;DHT22;14546;47.590;19.022;2023-05-10T08:51:40;17.30;61.00
27004;DHT22;14546;47.590;19.022;2023-05-10T08:54:06;17.40;60.70
27004;DHT22;14546;47.590;19.022;2023-05-10T08:56:36;17.30;60.30
27004;DHT22;14546;47.590;19.022;2023-05-10T08:59:02;17.40;60.60
27004;DHT22;14546;47.590;19.022;2023-05-10T09:01:28;17.40;60.70
27004;DHT22;14546;47.590;19.022;2023-05-10T09:03:58;17.40;61.00
27004;DHT22;14546;47.590;19.022;2023-05-10T09:06:24;17.50;61.20
27004;DHT22;14546;47.590;19.022;2023-05-10T09:08:50;17.50;60.90
27004;DHT22;14546;47.590;19.022;2023-05-10T09:11:18;17.60;60.70
27004;DHT22;14546;47.590;19.022;2023-05-10T09:13:47;17.80;61.00
27004;DHT22;14546;47.590;19.022;2023-05-10T09:16:13;18.10;60.90
27004;DHT22;14546;47.590;19.022;2023-05-10T09:18:39;18.20;60.00
27004;DHT22;14546;47.590;19.022;2023-05-10T09:21:06;18.40;59.20
27004;DHT22;14546;47.590;19.022;2023-05-10T15:40:00;18.40;58.60
27004;DHT22;14546;47.590;19.022;2023-05-10T15:42:32;20.30;42.70
27004;DHT22;14546;47.590;19.022;2023-05-10T15:44:58;20.00;42.90
27004;DHT22;14546;47.590;19.022;2023-05-10T15:47:25;19.90;43.00
27004;DHT22;14546;47.590;19.022;2023-05-10T15:49:53;19.70;43.20
27004;DHT22;14546;47.590;19.022;2023-05-10T15:52:20;19.60;43.40
27004;DHT22;14546;47.590;19.022;2023-05-10T15:54:46;19.60;44.00
